^^
Saratoga-Weather Station Historical Data
Daily Summary for August 8, 2021 Units:  Metric    English   Both
Daily Weekly Monthly Yearly Custom
  High: Low: Average:
Temperature: 8.5 °C 0.3 °C 3.8 °C
Dew Point: 6.9 °C -0.3 °C 3 °C
Humidity: 97% 88% 95%
Wind Speed: 4.7km/h 0km/h 0.5km/h
Wind Gust: 8km/h - -
Wind- - SE
Pressure: 1025.7 hPa 1021.3 hPa -
Precipitation: 0.0 mm    
Historical Graphs
 
 
Tabular Data for August 8, 2021
Time Temperature Dew Point Pressure Wind Wind Speed Wind Gust Humidity Rainfall Rate (Hourly) solar
00:04 5.6 °C 4.1 °C 1021.3 hPa East 3.2 km/h 3.2 km/h 90% 0.0 mm 0 W/m2
00:09 5.3 °C 3.8 °C 1021.3 hPa ESE 4.7 km/h 4.8 km/h 90% 0.0 mm 0 W/m2
00:14 5 °C 3.5 °C 1021.3 hPa ESE 1.4 km/h 3.2 km/h 90% 0.0 mm 0 W/m2
00:19 4.8 °C 3.5 °C 1021.3 hPa ESE 3.2 km/h 4.8 km/h 91% 0.0 mm 0 W/m2
00:24 4.6 °C 3.4 °C 1021.3 hPa Calm   3.2 km/h 92% 0.0 mm 0 W/m2
00:29 4.5 °C 3.3 °C 1021.3 hPa Calm   4.8 km/h 92% 0.0 mm 0 W/m2
00:34 4.3 °C 3.1 °C 1021.3 hPa Calm     92% 0.0 mm 0 W/m2
00:39 4.2 °C 3.2 °C 1021.7 hPa ESE 1.4 km/h 4.8 km/h 93% 0.0 mm 0 W/m2
00:44 4.2 °C 3.2 °C 1021.3 hPa Calm     93% 0.0 mm 0 W/m2
00:49 4.1 °C 3.1 °C 1021.3 hPa NW 3.2 km/h 3.2 km/h 93% 0.0 mm 0 W/m2
00:54 4.1 °C 3.2 °C 1021.3 hPa West 3.2 km/h 3.2 km/h 94% 0.0 mm 0 W/m2
00:59 4.1 °C 3.2 °C 1021.3 hPa Calm     94% 0.0 mm 0 W/m2
01:04 4 °C 3.1 °C 1021.3 hPa Calm     94% 0.0 mm 0 W/m2
01:09 3.9 °C 3 °C 1021.3 hPa Calm     94% 0.0 mm 0 W/m2
01:14 3.8 °C 2.9 °C 1021.3 hPa Calm     94% 0.0 mm 0 W/m2
01:19 3.9 °C 3 °C 1021.3 hPa Calm     94% 0.0 mm 0 W/m2
01:24 3.9 °C 3.2 °C 1021.3 hPa ESE 3.2 km/h 4.8 km/h 95% 0.0 mm 0 W/m2
01:29 3.9 °C 3.2 °C 1021.3 hPa ESE 3.2 km/h 4.8 km/h 95% 0.0 mm 0 W/m2
01:34 3.9 °C 3.2 °C 1021.3 hPa ESE 1.4 km/h 1.6 km/h 95% 0.0 mm 0 W/m2
01:39 3.8 °C 2.9 °C 1021.3 hPa Calm     94% 0.0 mm 0 W/m2
01:44 3.7 °C 2.8 °C 1021.3 hPa Calm     94% 0.0 mm 0 W/m2
01:49 3.6 °C 2.9 °C 1021.3 hPa South 1.4 km/h 3.2 km/h 95% 0.0 mm 0 W/m2
01:54 3.4 °C 2.5 °C 1021.3 hPa West 4.7 km/h 4.8 km/h 94% 0.0 mm 0 W/m2
01:59 3.4 °C 2.7 °C 1021.3 hPa West 3.2 km/h 4.8 km/h 95% 0.0 mm 0 W/m2
02:04 3.4 °C 2.7 °C 1021.3 hPa West 3.2 km/h 6.4 km/h 95% 0.0 mm 0 W/m2
02:09 3.6 °C 2.9 °C 1021.3 hPa West 3.2 km/h 8 km/h 95% 0.0 mm 0 W/m2
02:14 3.6 °C 2.9 °C 1021.3 hPa West 1.4 km/h 3.2 km/h 95% 0.0 mm 0 W/m2
02:19 3.7 °C 3 °C 1021.3 hPa WNW 1.4 km/h 8 km/h 95% 0.0 mm 0 W/m2
02:24 3.7 °C 3 °C 1021.3 hPa Calm   3.2 km/h 95% 0.0 mm 0 W/m2
02:29 3.7 °C 3 °C 1021.3 hPa Calm   1.6 km/h 95% 0.0 mm 0 W/m2
02:34 3.6 °C 2.9 °C 1021.3 hPa Calm     95% 0.0 mm 0 W/m2
02:39 3.5 °C 2.8 °C 1021.3 hPa Calm     95% 0.0 mm 0 W/m2
02:44 3.4 °C 2.7 °C 1021.3 hPa WNW 1.4 km/h 3.2 km/h 95% 0.0 mm 0 W/m2
02:49 3.3 °C 2.6 °C 1021.3 hPa Calm   3.2 km/h 95% 0.0 mm 0 W/m2
02:54 3.3 °C 2.6 °C 1021.3 hPa Calm     95% 0.0 mm 0 W/m2
02:59 3.3 °C 2.6 °C 1021.7 hPa Calm     95% 0.0 mm 0 W/m2
03:04 3.2 °C 2.5 °C 1021.3 hPa Calm     95% 0.0 mm 0 W/m2
03:09 3.1 °C 2.4 °C 1021.3 hPa Calm   3.2 km/h 95% 0.0 mm 0 W/m2
03:14 3 °C 2.3 °C 1021.3 hPa South 1.4 km/h 3.2 km/h 95% 0.0 mm 0 W/m2
03:19 3 °C 2.3 °C 1021.7 hPa East 3.2 km/h 6.4 km/h 95% 0.0 mm 0 W/m2
03:24 3.1 °C 2.4 °C 1021.7 hPa Calm     95% 0.0 mm 0 W/m2
03:29 3 °C 2.3 °C 1021.7 hPa ESE 1.4 km/h 6.4 km/h 95% 0.0 mm 0 W/m2
03:34 2.9 °C 2.2 °C 1022.0 hPa Calm     95% 0.0 mm 0 W/m2
03:39 2.8 °C 2.1 °C 1021.7 hPa Calm   3.2 km/h 95% 0.0 mm 0 W/m2
03:44 2.7 °C 2 °C 1021.7 hPa Calm     95% 0.0 mm 0 W/m2
03:49 2.6 °C 1.9 °C 1021.7 hPa Calm   3.2 km/h 95% 0.0 mm 0 W/m2
03:54 2.5 °C 1.8 °C 1021.7 hPa Calm   1.6 km/h 95% 0.0 mm 0 W/m2
03:59 2.4 °C 1.7 °C 1021.7 hPa Calm     95% 0.0 mm 0 W/m2
04:04 2.3 °C 1.6 °C 1021.7 hPa NW 1.4 km/h 1.6 km/h 95% 0.0 mm 0 W/m2
04:09 2.3 °C 1.6 °C 1021.7 hPa Calm     95% 0.0 mm 0 W/m2
04:14 2.2 °C 1.5 °C 1021.7 hPa Calm     95% 0.0 mm 0 W/m2
04:19 2.1 °C 1.4 °C 1021.7 hPa Calm     95% 0.0 mm 0 W/m2
04:24 2 °C 1.3 °C 1021.7 hPa Calm     95% 0.0 mm 0 W/m2
04:29 1.9 °C 1.2 °C 1021.7 hPa Calm     95% 0.0 mm 0 W/m2
04:34 1.8 °C 1.1 °C 1021.7 hPa Calm     95% 0.0 mm 0 W/m2
04:39 1.8 °C 1.1 °C 1021.7 hPa Calm     95% 0.0 mm 0 W/m2
04:44 1.7 °C 1 °C 1021.7 hPa Calm     95% 0.0 mm 0 W/m2
04:49 1.6 °C 0.9 °C 1021.7 hPa Calm     95% 0.0 mm 0 W/m2
04:54 1.6 °C 0.9 °C 1021.7 hPa Calm     95% 0.0 mm 0 W/m2
04:59 1.6 °C 1 °C 1021.7 hPa Calm     96% 0.0 mm 0 W/m2
05:05 1.5 °C 0.9 °C 1021.7 hPa Calm     96% 0.0 mm 0 W/m2
05:10 1.4 °C 0.7 °C 1022.0 hPa Calm     95% 0.0 mm 0 W/m2
05:15 1.4 °C 0.7 °C 1022.0 hPa Calm     95% 0.0 mm 0 W/m2
05:20 1.3 °C 0.6 °C 1022.0 hPa Calm     95% 0.0 mm 0 W/m2
05:25 1.4 °C 0.8 °C 1022.0 hPa Calm     96% 0.0 mm 0 W/m2
05:30 1.4 °C 0.8 °C 1022.0 hPa Calm     96% 0.0 mm 0 W/m2
05:35 1.4 °C 0.8 °C 1022.0 hPa Calm     96% 0.0 mm 0 W/m2
05:40 1.4 °C 0.8 °C 1022.0 hPa Calm     96% 0.0 mm 0 W/m2
05:45 1.6 °C 1 °C 1022.0 hPa Calm     96% 0.0 mm 0 W/m2
05:50 1.6 °C 1 °C 1022.0 hPa Calm     96% 0.0 mm 0 W/m2
05:55 1.6 °C 1 °C 1022.0 hPa Calm     96% 0.0 mm 0 W/m2
06:00 1.6 °C 1 °C 1022.0 hPa Calm     96% 0.0 mm 0 W/m2
06:05 1.7 °C 1.1 °C 1022.0 hPa Calm     96% 0.0 mm 0 W/m2
06:10 1.7 °C 1.1 °C 1022.0 hPa Calm     96% 0.0 mm 0 W/m2
06:15 1.7 °C 1.1 °C 1022.0 hPa Calm     96% 0.0 mm 0 W/m2
06:20 1.8 °C 1.2 °C 1022.4 hPa Calm     96% 0.0 mm 0 W/m2
06:25 1.7 °C 1.1 °C 1022.4 hPa Calm     96% 0.0 mm 0 W/m2
06:30 1.7 °C 1.1 °C 1022.4 hPa Calm     96% 0.0 mm 0 W/m2
06:40 1.5 °C 0.9 °C 1022.4 hPa Calm     96% 0.0 mm 0 W/m2
06:45 1.4 °C 0.8 °C 1022.4 hPa Calm     96% 0.0 mm 0 W/m2
06:50 1.4 °C 0.8 °C 1022.0 hPa Calm     96% 0.0 mm 0 W/m2
06:55 1.3 °C 0.7 °C 1022.4 hPa Calm     96% 0.0 mm 0 W/m2
07:00 1.3 °C 0.7 °C 1022.4 hPa Calm     96% 0.0 mm 0 W/m2
07:05 1.3 °C 0.7 °C 1022.4 hPa Calm     96% 0.0 mm 0 W/m2
07:10 1.2 °C 0.6 °C 1022.4 hPa Calm     96% 0.0 mm 0 W/m2
07:15 1.1 °C 0.5 °C 1022.4 hPa Calm     96% 0.0 mm 0 W/m2
07:20 1.1 °C 0.5 °C 1022.4 hPa Calm     96% 0.0 mm 0 W/m2
07:25 1 °C 0.4 °C 1022.4 hPa Calm     96% 0.0 mm 0 W/m2
07:35 0.9 °C 0.3 °C 1022.7 hPa Calm     96% 0.0 mm 5 W/m2
07:40 0.9 °C 0.3 °C 1022.7 hPa Calm     96% 0.0 mm 7 W/m2
07:45 0.9 °C 0.3 °C 1022.7 hPa Calm     96% 0.0 mm 11 W/m2
07:50 0.9 °C 0.3 °C 1023.0 hPa Calm     96% 0.0 mm 12 W/m2
07:55 0.8 °C 0.2 °C 1023.0 hPa Calm     96% 0.0 mm 14 W/m2
08:00 0.8 °C 0.2 °C 1023.0 hPa East 1.4 km/h 3.2 km/h 96% 0.0 mm 16 W/m2
08:05 0.7 °C 0.1 °C 1023.0 hPa Calm   1.6 km/h 96% 0.0 mm 19 W/m2
08:10 0.5 °C -0.1 °C 1023.0 hPa Calm     96% 0.0 mm 23 W/m2
08:15 0.4 °C -0.2 °C 1023.4 hPa Calm     96% 0.0 mm 26 W/m2
08:25 0.3 °C -0.3 °C 1023.4 hPa Calm     96% 0.0 mm 37 W/m2
08:30 0.3 °C -0.3 °C 1023.4 hPa Calm     96% 0.0 mm 32 W/m2
08:35 0.4 °C -0.2 °C 1023.4 hPa Calm     96% 0.0 mm 33 W/m2
08:40 0.6 °C 0 °C 1023.4 hPa Calm     96% 0.0 mm 39 W/m2
08:45 0.7 °C 0.1 °C 1023.4 hPa Calm     96% 0.0 mm 40 W/m2
08:50 0.8 °C 0.2 °C 1023.4 hPa Calm     96% 0.0 mm 42 W/m2
08:55 0.9 °C 0.5 °C 1023.4 hPa Calm     97% 0.0 mm 74 W/m2
09:00 1.1 °C 0.7 °C 1023.4 hPa Calm     97% 0.0 mm 72 W/m2
09:05 1.2 °C 0.6 °C 1023.4 hPa Calm     96% 0.0 mm 76 W/m2
09:10 1.3 °C 0.9 °C 1023.4 hPa Calm     97% 0.0 mm 56 W/m2
09:15 1.4 °C 1 °C 1023.4 hPa Calm     97% 0.0 mm 60 W/m2
09:20 1.5 °C 1.1 °C 1023.4 hPa ENE 1.4 km/h 3.2 km/h 97% 0.0 mm 67 W/m2
09:25 1.7 °C 1.3 °C 1023.7 hPa ESE 3.2 km/h 4.8 km/h 97% 0.0 mm 74 W/m2
09:30 1.7 °C 1.3 °C 1023.4 hPa Calm     97% 0.0 mm 70 W/m2
09:35 1.8 °C 1.4 °C 1023.7 hPa ENE 1.4 km/h 4.8 km/h 97% 0.0 mm 74 W/m2
09:40 1.8 °C 1.4 °C 1023.7 hPa Calm   3.2 km/h 97% 0.0 mm 58 W/m2
09:45 1.8 °C 1.4 °C 1023.7 hPa Calm     97% 0.0 mm 53 W/m2
09:50 1.8 °C 1.4 °C 1023.7 hPa Calm   3.2 km/h 97% 0.0 mm 53 W/m2
09:55 1.9 °C 1.5 °C 1023.7 hPa Calm     97% 0.0 mm 60 W/m2
10:00 2 °C 1.6 °C 1023.7 hPa Calm     97% 0.0 mm 60 W/m2
10:05 2.2 °C 1.8 °C 1023.7 hPa Calm     97% 0.0 mm 65 W/m2
10:10 2.4 °C 2 °C 1023.7 hPa ENE 3.2 km/h 4.8 km/h 97% 0.0 mm 65 W/m2
10:15 2.7 °C 2.3 °C 1023.7 hPa ENE 3.2 km/h 3.2 km/h 97% 0.0 mm 69 W/m2
10:20 2.7 °C 2.3 °C 1023.7 hPa East 1.4 km/h 4.8 km/h 97% 0.0 mm 102 W/m2
10:25 2.7 °C 2.3 °C 1023.7 hPa East 1.4 km/h 4.8 km/h 97% 0.0 mm 109 W/m2
10:30 2.7 °C 2.3 °C 1023.7 hPa East 1.4 km/h 3.2 km/h 97% 0.0 mm 125 W/m2
10:35 2.8 °C 2.4 °C 1023.7 hPa ESE 1.4 km/h 4.8 km/h 97% 0.0 mm 118 W/m2
10:40 2.9 °C 2.5 °C 1023.7 hPa ENE 1.4 km/h 3.2 km/h 97% 0.0 mm 118 W/m2
10:45 3 °C 2.6 °C 1023.7 hPa Calm   4.8 km/h 97% 0.0 mm 104 W/m2
10:51 3.1 °C 2.7 °C 1023.7 hPa ENE 1.4 km/h 3.2 km/h 97% 0.0 mm 125 W/m2
10:56 3.2 °C 2.8 °C 1023.7 hPa Calm   1.6 km/h 97% 0.0 mm 113 W/m2
11:01 3.3 °C 2.9 °C 1023.7 hPa Calm   1.6 km/h 97% 0.0 mm 90 W/m2
11:06 3.3 °C 2.9 °C 1023.7 hPa Calm     97% 0.0 mm 70 W/m2
11:11 3.4 °C 3 °C 1023.7 hPa Calm     97% 0.0 mm 72 W/m2
11:16 3.6 °C 3.2 °C 1023.7 hPa Calm   1.6 km/h 97% 0.0 mm 67 W/m2
11:21 3.8 °C 3.4 °C 1023.7 hPa Calm     97% 0.0 mm 69 W/m2
11:26 4 °C 3.6 °C 1023.7 hPa Calm   3.2 km/h 97% 0.0 mm 67 W/m2
11:31 4.2 °C 3.8 °C 1024.0 hPa East 3.2 km/h 4.8 km/h 97% 0.0 mm 77 W/m2
11:36 4.3 °C 3.9 °C 1024.0 hPa ENE 3.2 km/h 4.8 km/h 97% 0.0 mm 83 W/m2
11:41 4.3 °C 3.9 °C 1024.0 hPa ESE 1.4 km/h 4.8 km/h 97% 0.0 mm 100 W/m2
11:46 4.3 °C 3.9 °C 1024.0 hPa ESE 3.2 km/h 6.4 km/h 97% 0.0 mm 149 W/m2
11:51 4.4 °C 4 °C 1023.7 hPa ENE 3.2 km/h 4.8 km/h 97% 0.0 mm 148 W/m2
11:56 4.4 °C 4 °C 1024.0 hPa ESE 3.2 km/h 4.8 km/h 97% 0.0 mm 162 W/m2
12:01 4.4 °C 4 °C 1024.0 hPa ENE 3.2 km/h 4.8 km/h 97% 0.0 mm 162 W/m2
12:06 4.4 °C 4 °C 1024.0 hPa ESE 1.4 km/h 3.2 km/h 97% 0.0 mm 174 W/m2
12:11 4.6 °C 4.2 °C 1023.7 hPa ESE 3.2 km/h 4.8 km/h 97% 0.0 mm 174 W/m2
12:16 4.7 °C 4.3 °C 1023.7 hPa East 1.4 km/h 4.8 km/h 97% 0.0 mm 169 W/m2
12:21 4.8 °C 4.4 °C 1023.7 hPa East 3.2 km/h 4.8 km/h 97% 0.0 mm 155 W/m2
12:26 4.8 °C 4.4 °C 1023.7 hPa East 1.4 km/h 6.4 km/h 97% 0.0 mm 151 W/m2
12:31 4.8 °C 4.4 °C 1023.7 hPa ESE 3.2 km/h 3.2 km/h 97% 0.0 mm 169 W/m2
12:36 4.8 °C 4.4 °C 1023.7 hPa Calm   6.4 km/h 97% 0.0 mm 174 W/m2
12:41 4.8 °C 4.4 °C 1023.4 hPa East 3.2 km/h 4.8 km/h 97% 0.0 mm 188 W/m2
12:46 4.9 °C 4.5 °C 1023.4 hPa Calm   3.2 km/h 97% 0.0 mm 179 W/m2
12:51 5 °C 4.6 °C 1023.4 hPa Calm   1.6 km/h 97% 0.0 mm 162 W/m2
12:56 5 °C 4.6 °C 1023.4 hPa NE 1.4 km/h 4.8 km/h 97% 0.0 mm 163 W/m2
13:01 4.9 °C 4.5 °C 1023.4 hPa Calm   3.2 km/h 97% 0.0 mm 118 W/m2
13:06 5.1 °C 4.7 °C 1023.4 hPa Calm   1.6 km/h 97% 0.0 mm 134 W/m2
13:11 5.2 °C 4.8 °C 1023.4 hPa ESE 3.2 km/h 4.8 km/h 97% 0.0 mm 83 W/m2
13:16 5.3 °C 4.9 °C 1023.4 hPa ENE 1.4 km/h 3.2 km/h 97% 0.0 mm 100 W/m2
13:21 5.4 °C 5 °C 1023.4 hPa ENE 3.2 km/h 4.8 km/h 97% 0.0 mm 102 W/m2
13:26 5.6 °C 5.2 °C 1023.4 hPa East 1.4 km/h 3.2 km/h 97% 0.0 mm 100 W/m2
13:31 5.8 °C 5.4 °C 1023.4 hPa NE 3.2 km/h 3.2 km/h 97% 0.0 mm 125 W/m2
13:36 6.1 °C 5.7 °C 1023.4 hPa SE 3.2 km/h 3.2 km/h 97% 0.0 mm 149 W/m2
13:41 6.3 °C 5.9 °C 1023.4 hPa ESE 3.2 km/h 4.8 km/h 97% 0.0 mm 206 W/m2
13:46 6.5 °C 6.1 °C 1023.4 hPa ESE 1.4 km/h 4.8 km/h 97% 0.0 mm 186 W/m2
13:51 6.7 °C 6.3 °C 1023.4 hPa ESE 3.2 km/h 4.8 km/h 97% 0.0 mm 107 W/m2
13:56 6.9 °C 6.5 °C 1023.4 hPa ESE 3.2 km/h 3.2 km/h 97% 0.0 mm 98 W/m2
14:01 7.1 °C 6.7 °C 1023.4 hPa ENE 1.4 km/h 1.6 km/h 97% 0.0 mm 81 W/m2
14:06 7.3 °C 6.9 °C 1023.4 hPa ESE 1.4 km/h 3.2 km/h 97% 0.0 mm 74 W/m2
14:11 7.3 °C 6.7 °C 1023.4 hPa Calm   3.2 km/h 96% 0.0 mm 74 W/m2
14:16 7.4 °C 6.7 °C 1023.4 hPa ESE 3.2 km/h 3.2 km/h 95% 0.0 mm 65 W/m2
14:21 7.6 °C 6.9 °C 1023.0 hPa ESE 1.4 km/h 3.2 km/h 95% 0.0 mm 70 W/m2
14:26 7.7 °C 6.8 °C 1023.0 hPa Calm   1.6 km/h 94% 0.0 mm 70 W/m2
14:31 7.7 °C 6.6 °C 1023.0 hPa Calm   3.2 km/h 93% 0.0 mm 67 W/m2
14:36 7.8 °C 6.7 °C 1023.0 hPa Calm     93% 0.0 mm 63 W/m2
14:41 7.8 °C 6.6 °C 1023.0 hPa Calm   1.6 km/h 92% 0.0 mm 63 W/m2
14:46 7.9 °C 6.7 °C 1023.0 hPa Calm     92% 0.0 mm 62 W/m2
14:51 8.1 °C 6.7 °C 1023.4 hPa Calm     91% 0.0 mm 63 W/m2
14:56 8.1 °C 6.6 °C 1023.0 hPa Calm     90% 0.0 mm 69 W/m2
15:01 8.2 °C 6.7 °C 1023.0 hPa Calm     90% 0.0 mm 72 W/m2
15:06 8.3 °C 6.8 °C 1023.0 hPa Calm     90% 0.0 mm 72 W/m2
15:11 8.3 °C 6.6 °C 1023.0 hPa Calm     89% 0.0 mm 65 W/m2
15:16 8.4 °C 6.5 °C 1023.0 hPa Calm     88% 0.0 mm 63 W/m2
15:21 8.4 °C 6.5 °C 1023.4 hPa Calm     88% 0.0 mm 62 W/m2
15:26 8.4 °C 6.5 °C 1023.0 hPa Calm     88% 0.0 mm 54 W/m2
15:31 8.4 °C 6.5 °C 1023.4 hPa Calm     88% 0.0 mm 47 W/m2
15:36 8.5 °C 6.6 °C 1023.4 hPa Calm     88% 0.0 mm 44 W/m2
15:41 8.4 °C 6.7 °C 1023.4 hPa Calm     89% 0.0 mm 40 W/m2
15:46 8.3 °C 6.6 °C 1023.4 hPa Calm     89% 0.0 mm 35 W/m2
15:51 8.3 °C 6.6 °C 1023.4 hPa Calm     89% 0.0 mm 30 W/m2
15:56 8.2 °C 6.5 °C 1023.4 hPa Calm     89% 0.0 mm 28 W/m2
16:01 8 °C 6.3 °C 1023.4 hPa Calm     89% 0.0 mm 25 W/m2
16:06 7.9 °C 6.2 °C 1023.4 hPa Calm     89% 0.0 mm 25 W/m2
16:11 7.7 °C 6 °C 1023.4 hPa Calm     89% 0.0 mm 23 W/m2
16:16 7.5 °C 6 °C 1023.4 hPa Calm     90% 0.0 mm 21 W/m2
16:21 7.3 °C 5.8 °C 1023.4 hPa Calm     90% 0.0 mm 19 W/m2
16:26 7.2 °C 5.7 °C 1023.4 hPa Calm     90% 0.0 mm 16 W/m2
16:31 7 °C 5.5 °C 1023.7 hPa Calm     90% 0.0 mm 14 W/m2
16:36 6.8 °C 5.3 °C 1023.4 hPa Calm     90% 0.0 mm 11 W/m2
16:41 6.7 °C 5.3 °C 1023.4 hPa Calm     91% 0.0 mm 9 W/m2
16:46 6.6 °C 5.2 °C 1023.4 hPa Calm     91% 0.0 mm 7 W/m2
16:52 6.4 °C 5.2 °C 1023.4 hPa Calm     92% 0.0 mm 7 W/m2
16:57 6.3 °C 5.1 °C 1023.4 hPa Calm     92% 0.0 mm 5 W/m2
17:02 6.1 °C 4.9 °C 1023.4 hPa Calm     92% 0.0 mm 0 W/m2
17:07 6 °C 4.8 °C 1023.7 hPa Calm     92% 0.0 mm 0 W/m2
17:12 5.8 °C 4.6 °C 1023.7 hPa Calm     92% 0.0 mm 0 W/m2
17:17 5.8 °C 4.6 °C 1023.7 hPa Calm     92% 0.0 mm 0 W/m2
17:22 5.6 °C 4.4 °C 1023.7 hPa Calm     92% 0.0 mm 0 W/m2
17:27 5.5 °C 4.5 °C 1024.0 hPa Calm     93% 0.0 mm 0 W/m2
17:32 5.4 °C 4.4 °C 1024.0 hPa Calm     93% 0.0 mm 0 W/m2
17:37 5.3 °C 4.3 °C 1024.0 hPa Calm     93% 0.0 mm 0 W/m2
17:42 5.2 °C 4.2 °C 1023.7 hPa Calm     93% 0.0 mm 0 W/m2
17:47 5.1 °C 4.1 °C 1023.7 hPa Calm     93% 0.0 mm 0 W/m2
17:52 5.1 °C 4.1 °C 1023.7 hPa Calm     93% 0.0 mm 0 W/m2
17:57 4.9 °C 4 °C 1023.7 hPa Calm     94% 0.0 mm 0 W/m2
18:02 4.9 °C 4 °C 1024.0 hPa Calm     94% 0.0 mm 0 W/m2
18:07 4.8 °C 3.9 °C 1024.0 hPa Calm     94% 0.0 mm 0 W/m2
18:12 4.7 °C 3.8 °C 1024.0 hPa Calm     94% 0.0 mm 0 W/m2
18:17 4.6 °C 3.7 °C 1024.0 hPa Calm     94% 0.0 mm 0 W/m2
18:22 4.5 °C 3.6 °C 1024.0 hPa Calm     94% 0.0 mm 0 W/m2
18:27 4.4 °C 3.5 °C 1024.0 hPa Calm     94% 0.0 mm 0 W/m2
18:32 4.5 °C 3.8 °C 1024.4 hPa Calm     95% 0.0 mm 0 W/m2
18:37 4.5 °C 3.8 °C 1024.4 hPa Calm     95% 0.0 mm 0 W/m2
18:47 4.3 °C 3.6 °C 1024.7 hPa Calm     95% 0.0 mm 0 W/m2
18:52 4.3 °C 3.6 °C 1024.7 hPa Calm     95% 0.0 mm 0 W/m2
18:57 4.2 °C 3.5 °C 1024.7 hPa Calm     95% 0.0 mm 0 W/m2
19:02 4.2 °C 3.5 °C 1024.7 hPa Calm     95% 0.0 mm 0 W/m2
19:07 4.2 °C 3.5 °C 1024.7 hPa Calm     95% 0.0 mm 0 W/m2
19:12 4.2 °C 3.5 °C 1025.1 hPa Calm     95% 0.0 mm 0 W/m2
19:17 4.1 °C 3.4 °C 1025.1 hPa Calm     95% 0.0 mm 0 W/m2
19:22 4.2 °C 3.5 °C 1025.1 hPa Calm     95% 0.0 mm 0 W/m2
19:27 4.3 °C 3.6 °C 1025.1 hPa Calm   4.8 km/h 95% 0.0 mm 0 W/m2
19:32 4.4 °C 3.7 °C 1025.1 hPa WNW 1.4 km/h 4.8 km/h 95% 0.0 mm 0 W/m2
19:37 4.4 °C 3.8 °C 1025.1 hPa Calm   1.6 km/h 96% 0.0 mm 0 W/m2
19:42 4.5 °C 3.9 °C 1025.1 hPa Calm   3.2 km/h 96% 0.0 mm 0 W/m2
19:47 4.6 °C 4 °C 1025.1 hPa Calm   1.6 km/h 96% 0.0 mm 0 W/m2
19:52 4.6 °C 4 °C 1025.1 hPa Calm   3.2 km/h 96% 0.0 mm 0 W/m2
19:57 4.6 °C 4 °C 1025.1 hPa Calm   1.6 km/h 96% 0.0 mm 0 W/m2
20:02 4.7 °C 4.1 °C 1025.1 hPa Calm   3.2 km/h 96% 0.0 mm 0 W/m2
20:07 4.7 °C 4.1 °C 1025.1 hPa Calm     96% 0.0 mm 0 W/m2
20:12 4.6 °C 4 °C 1025.1 hPa Calm     96% 0.0 mm 0 W/m2
20:17 4.6 °C 4 °C 1025.1 hPa Calm     96% 0.0 mm 0 W/m2
20:22 4.5 °C 3.9 °C 1025.1 hPa Calm     96% 0.0 mm 0 W/m2
20:27 4.4 °C 3.8 °C 1025.1 hPa Calm     96% 0.0 mm 0 W/m2
20:32 4.4 °C 3.8 °C 1025.1 hPa Calm     96% 0.0 mm 0 W/m2
20:37 4.3 °C 3.7 °C 1025.1 hPa Calm     96% 0.0 mm 0 W/m2
20:42 4.2 °C 3.6 °C 1025.1 hPa Calm     96% 0.0 mm 0 W/m2
20:47 4.1 °C 3.4 °C 1025.1 hPa Calm     95% 0.0 mm 0 W/m2
20:52 3.9 °C 3.2 °C 1025.1 hPa Calm     95% 0.0 mm 0 W/m2
20:57 3.8 °C 3.1 °C 1025.1 hPa Calm     95% 0.0 mm 0 W/m2
21:02 3.7 °C 3 °C 1025.1 hPa Calm     95% 0.0 mm 0 W/m2
21:07 3.6 °C 2.9 °C 1025.1 hPa Calm     95% 0.0 mm 0 W/m2
21:12 3.6 °C 3 °C 1025.4 hPa Calm     96% 0.0 mm 0 W/m2
21:17 3.5 °C 2.9 °C 1025.4 hPa Calm     96% 0.0 mm 0 W/m2
21:22 3.4 °C 2.8 °C 1025.4 hPa Calm     96% 0.0 mm 0 W/m2
21:27 3.3 °C 2.6 °C 1025.4 hPa Calm     95% 0.0 mm 0 W/m2
21:32 3.3 °C 2.7 °C 1025.4 hPa Calm     96% 0.0 mm 0 W/m2
21:37 3.2 °C 2.6 °C 1025.4 hPa Calm     96% 0.0 mm 0 W/m2
21:42 3.1 °C 2.5 °C 1025.4 hPa Calm     96% 0.0 mm 0 W/m2
21:47 3.1 °C 2.5 °C 1025.4 hPa Calm     96% 0.0 mm 0 W/m2
21:52 2.9 °C 2.3 °C 1025.4 hPa Calm     96% 0.0 mm 0 W/m2
21:57 2.9 °C 2.3 °C 1025.4 hPa Calm     96% 0.0 mm 0 W/m2
22:02 2.8 °C 2.2 °C 1025.4 hPa Calm     96% 0.0 mm 0 W/m2
22:07 2.8 °C 2.2 °C 1025.4 hPa Calm     96% 0.0 mm 0 W/m2
22:12 2.7 °C 2.1 °C 1025.4 hPa Calm     96% 0.0 mm 0 W/m2
22:17 2.6 °C 2 °C 1025.4 hPa Calm     96% 0.0 mm 0 W/m2
22:22 2.6 °C 2 °C 1025.4 hPa Calm     96% 0.0 mm 0 W/m2
22:27 2.5 °C 1.9 °C 1025.4 hPa Calm     96% 0.0 mm 0 W/m2
22:32 2.4 °C 1.8 °C 1025.4 hPa Calm     96% 0.0 mm 0 W/m2
22:37 2.3 °C 1.7 °C 1025.4 hPa Calm     96% 0.0 mm 0 W/m2
22:42 2.3 °C 1.7 °C 1025.4 hPa Calm     96% 0.0 mm 0 W/m2
22:47 2.2 °C 1.6 °C 1025.4 hPa Calm     96% 0.0 mm 0 W/m2
22:52 2.2 °C 1.6 °C 1025.4 hPa Calm     96% 0.0 mm 0 W/m2
22:57 2.2 °C 1.6 °C 1025.4 hPa Calm     96% 0.0 mm 0 W/m2
23:02 2.1 °C 1.5 °C 1025.4 hPa Calm     96% 0.0 mm 0 W/m2
23:07 2.1 °C 1.5 °C 1025.4 hPa Calm     96% 0.0 mm 0 W/m2
23:12 2.1 °C 1.5 °C 1025.4 hPa Calm     96% 0.0 mm 0 W/m2
23:17 2 °C 1.4 °C 1025.7 hPa Calm     96% 0.0 mm 0 W/m2
23:22 1.9 °C 1.3 °C 1025.7 hPa Calm     96% 0.0 mm 0 W/m2
23:27 1.8 °C 1.2 °C 1025.7 hPa Calm     96% 0.0 mm 0 W/m2
23:33 1.8 °C 1.2 °C 1025.7 hPa Calm     96% 0.0 mm 0 W/m2
23:38 1.7 °C 1.1 °C 1025.7 hPa Calm     96% 0.0 mm 0 W/m2
23:43 1.6 °C 1 °C 1025.4 hPa Calm     96% 0.0 mm 0 W/m2
23:48 1.6 °C 1 °C 1025.7 hPa Calm     96% 0.0 mm 0 W/m2
23:53 1.6 °C 1 °C 1025.7 hPa Calm     96% 0.0 mm 0 W/m2
23:58 1.5 °C 0.9 °C 1025.7 hPa Calm     96% 0.0 mm 0 W/m2
Juneau County Weather
Compliments of Weather Underground - 4 mb